LPCS

Cascais Airport

Portugal
TAF LPCS 221400Z 2215/2224 33015KT 9999 FEW018 BKN025 TEMPO 2215/2221 6000 -RA BKN018 PROB40 TEMPO 2215/2221 33020G30KT
Issued Valid From Valid To
Jan-22 @ 14:00 UTC
(3 hours ago)
Jan-22 @ 15:00 UTC
(2 hours ago)
Jan-23 @ 00:00 UTC
(in 7 hours)
Jan-22 @ 15:00 to Jan-23 @ 00:00
TAF LPCS 221400Z 2215/2224 33015KT 9999 FEW018 BKN025
Wind Visibility Clouds
330° at 15 knots 10,000+ meters
  • Few at 1,800' AGL
  • Broken at 2,500' AGL
Temporary  (Probability 40%) Jan-22 @ 15:00 to Jan-22 @ 21:00
PROB40 TEMPO 2215/2221 33020G30KT
Wind
330° at 20 knots
 Gusting to 30 knots
Temporary Jan-22 @ 15:00 to Jan-22 @ 21:00
TEMPO 2215/2221 6000 -RA BKN018
Visibility Clouds Conditions
6,003 meters
  • Broken at 1,800' AGL
  • Light Rain
TAF LPCS 221400Z 2215/2224 33015KT 9999 FEW018 BKN025 TEMPO 2215/2221 6000 -RA BKN018 PROB40 TEMPO 2215/2221 33020G30KT
Issued Jan-22 @ 14:00 UTC
(3 hours ago)
Valid From Jan-22 @ 15:00 UTC
(2 hours ago)
Valid To Jan-23 @ 00:00 UTC
(in 7 hours)
Jan-22 @ 15:00 - Jan-23 @ 00:00
Wind Visibility
330° at 15 knots 10,000+ meters
Clouds
  • Few at 1,800' AGL
  • Broken at 2,500' AGL
Probability 40% Temporary Jan-22 @ 15:00 - Jan-22 @ 21:00
Wind
330° at 20 knots
 Gusting to 30 knots
Temporary Jan-22 @ 15:00 - Jan-22 @ 21:00
Clouds
  • Broken at 1,800' AGL
Conditions
  • Light Rain